sensor_id;sensor_type;location;lat;lon;timestamp;P1;durP1;ratioP1;P2;durP2;ratioP2
21677;SDS011;11000;50.360;7.582;2022-11-21T00:01:14;1.43;;;0.90;;
21677;SDS011;11000;50.360;7.582;2022-11-21T00:03:37;3.33;;;1.07;;
21677;SDS011;11000;50.360;7.582;2022-11-21T00:05:58;6.23;;;2.03;;
21677;SDS011;11000;50.360;7.582;2022-11-21T00:08:19;4.73;;;0.87;;
21677;SDS011;11000;50.360;7.582;2022-11-21T00:10:41;3.07;;;0.80;;
21677;SDS011;11000;50.360;7.582;2022-11-21T00:13:02;3.70;;;1.23;;
21677;SDS011;11000;50.360;7.582;2022-11-21T00:15:24;3.13;;;0.83;;
21677;SDS011;11000;50.360;7.582;2022-11-21T00:17:45;5.60;;;1.20;;
21677;SDS011;11000;50.360;7.582;2022-11-21T00:20:05;5.97;;;1.10;;
21677;SDS011;11000;50.360;7.582;2022-11-21T00:22:26;4.90;;;0.90;;
21677;SDS011;11000;50.360;7.582;2022-11-21T00:24:47;5.13;;;1.53;;
21677;SDS011;11000;50.360;7.582;2022-11-21T00:27:07;4.07;;;1.00;;
21677;SDS011;11000;50.360;7.582;2022-11-21T00:29:28;3.30;;;1.10;;
21677;SDS011;11000;50.360;7.582;2022-11-21T00:31:48;2.97;;;1.20;;
21677;SDS011;11000;50.360;7.582;2022-11-21T00:34:09;2.73;;;1.07;;
21677;SDS011;11000;50.360;7.582;2022-11-21T00:36:29;4.97;;;1.07;;
21677;SDS011;11000;50.360;7.582;2022-11-21T00:38:50;3.37;;;0.87;;
21677;SDS011;11000;50.360;7.582;2022-11-21T00:41:10;6.03;;;1.10;;
21677;SDS011;11000;50.360;7.582;2022-11-21T00:43:31;5.77;;;1.27;;
21677;SDS011;11000;50.360;7.582;2022-11-21T00:45:51;4.60;;;1.03;;
21677;SDS011;11000;50.360;7.582;2022-11-21T00:48:12;3.97;;;1.43;;
21677;SDS011;11000;50.360;7.582;2022-11-21T00:50:33;3.77;;;1.07;;
21677;SDS011;11000;50.360;7.582;2022-11-21T00:52:57;6.23;;;1.30;;
21677;SDS011;11000;50.360;7.582;2022-11-21T00:55:18;3.20;;;1.30;;
21677;SDS011;11000;50.360;7.582;2022-11-21T00:57:38;4.60;;;1.13;;
21677;SDS011;11000;50.360;7.582;2022-11-21T00:59:59;8.47;;;1.53;;
21677;SDS011;11000;50.360;7.582;2022-11-21T01:02:19;5.37;;;1.40;;
21677;SDS011;11000;50.360;7.582;2022-11-21T01:04:40;5.03;;;1.10;;
21677;SDS011;11000;50.360;7.582;2022-11-21T01:07:00;7.33;;;1.90;;
21677;SDS011;11000;50.360;7.582;2022-11-21T01:09:21;4.40;;;1.30;;
21677;SDS011;11000;50.360;7.582;2022-11-21T01:11:41;4.30;;;1.57;;
21677;SDS011;11000;50.360;7.582;2022-11-21T01:14:02;6.23;;;1.67;;
21677;SDS011;11000;50.360;7.582;2022-11-21T01:16:23;7.23;;;1.53;;
21677;SDS011;11000;50.360;7.582;2022-11-21T01:18:46;5.30;;;1.60;;
21677;SDS011;11000;50.360;7.582;2022-11-21T01:21:28;9.83;;;1.80;;
21677;SDS011;11000;50.360;7.582;2022-11-21T01:23:48;5.87;;;1.70;;
21677;SDS011;11000;50.360;7.582;2022-11-21T01:26:11;7.13;;;1.90;;
21677;SDS011;11000;50.360;7.582;2022-11-21T01:28:33;7.47;;;1.90;;
21677;SDS011;11000;50.360;7.582;2022-11-21T01:30:54;10.97;;;1.73;;
21677;SDS011;11000;50.360;7.582;2022-11-21T01:33:14;7.57;;;1.70;;
21677;SDS011;11000;50.360;7.582;2022-11-21T01:35:35;6.87;;;1.73;;
21677;SDS011;11000;50.360;7.582;2022-11-21T01:37:55;5.53;;;1.77;;
21677;SDS011;11000;50.360;7.582;2022-11-21T01:40:16;6.40;;;1.70;;
21677;SDS011;11000;50.360;7.582;2022-11-21T01:42:48;6.07;;;1.87;;
21677;SDS011;11000;50.360;7.582;2022-11-21T01:48:14;6.60;;;2.60;;
21677;SDS011;11000;50.360;7.582;2022-11-21T01:50:35;6.90;;;2.13;;
21677;SDS011;11000;50.360;7.582;2022-11-21T01:52:56;5.90;;;1.80;;
21677;SDS011;11000;50.360;7.582;2022-11-21T01:55:17;6.20;;;1.80;;
21677;SDS011;11000;50.360;7.582;2022-11-21T01:57:38;14.10;;;2.63;;
21677;SDS011;11000;50.360;7.582;2022-11-21T02:00:07;12.40;;;2.27;;
21677;SDS011;11000;50.360;7.582;2022-11-21T02:02:38;7.73;;;1.70;;
21677;SDS011;11000;50.360;7.582;2022-11-21T02:05:02;9.13;;;2.00;;
21677;SDS011;11000;50.360;7.582;2022-11-21T02:07:25;10.57;;;2.27;;
21677;SDS011;11000;50.360;7.582;2022-11-21T02:09:58;10.03;;;3.23;;
21677;SDS011;11000;50.360;7.582;2022-11-21T02:12:25;10.73;;;3.13;;
21677;SDS011;11000;50.360;7.582;2022-11-21T02:15:05;9.07;;;2.60;;
21677;SDS011;11000;50.360;7.582;2022-11-21T02:17:30;12.73;;;2.27;;
21677;SDS011;11000;50.360;7.582;2022-11-21T02:19:54;9.47;;;2.47;;
21677;SDS011;11000;50.360;7.582;2022-11-21T02:22:21;11.13;;;1.97;;
21677;SDS011;11000;50.360;7.582;2022-11-21T02:25:09;8.27;;;2.07;;
21677;SDS011;11000;50.360;7.582;2022-11-21T02:27:33;15.40;;;2.40;;
21677;SDS011;11000;50.360;7.582;2022-11-21T02:29:53;10.40;;;1.90;;
21677;SDS011;11000;50.360;7.582;2022-11-21T02:32:24;8.33;;;2.50;;
21677;SDS011;11000;50.360;7.582;2022-11-21T02:34:52;9.67;;;2.20;;
21677;SDS011;11000;50.360;7.582;2022-11-21T02:37:12;12.37;;;2.83;;
21677;SDS011;11000;50.360;7.582;2022-11-21T02:39:34;11.20;;;2.13;;
21677;SDS011;11000;50.360;7.582;2022-11-21T02:42:04;12.93;;;2.10;;
21677;SDS011;11000;50.360;7.582;2022-11-21T02:44:42;8.23;;;2.13;;
21677;SDS011;11000;50.360;7.582;2022-11-21T02:47:10;12.60;;;2.40;;
21677;SDS011;11000;50.360;7.582;2022-11-21T02:49:36;10.53;;;2.40;;
21677;SDS011;11000;50.360;7.582;2022-11-21T02:52:05;9.10;;;2.27;;
21677;SDS011;11000;50.360;7.582;2022-11-21T02:54:26;7.93;;;1.83;;
21677;SDS011;11000;50.360;7.582;2022-11-21T02:56:46;7.20;;;2.10;;
21677;SDS011;11000;50.360;7.582;2022-11-21T02:59:07;6.63;;;1.93;;
21677;SDS011;11000;50.360;7.582;2022-11-21T03:01:27;8.70;;;1.80;;
21677;SDS011;11000;50.360;7.582;2022-11-21T03:03:48;10.20;;;2.70;;
21677;SDS011;11000;50.360;7.582;2022-11-21T03:06:08;13.40;;;2.37;;
21677;SDS011;11000;50.360;7.582;2022-11-21T03:08:29;11.93;;;3.13;;
21677;SDS011;11000;50.360;7.582;2022-11-21T03:10:49;14.37;;;2.47;;
21677;SDS011;11000;50.360;7.582;2022-11-21T03:13:10;11.03;;;2.63;;
21677;SDS011;11000;50.360;7.582;2022-11-21T03:15:32;11.00;;;2.40;;
21677;SDS011;11000;50.360;7.582;2022-11-21T03:17:53;6.60;;;2.30;;
21677;SDS011;11000;50.360;7.582;2022-11-21T03:20:14;8.10;;;2.03;;
21677;SDS011;11000;50.360;7.582;2022-11-21T03:22:35;6.53;;;1.93;;
21677;SDS011;11000;50.360;7.582;2022-11-21T03:24:55;6.10;;;2.63;;
21677;SDS011;11000;50.360;7.582;2022-11-21T03:27:16;8.50;;;2.07;;
21677;SDS011;11000;50.360;7.582;2022-11-21T03:29:36;6.70;;;1.87;;
21677;SDS011;11000;50.360;7.582;2022-11-21T03:32:00;7.50;;;1.83;;
21677;SDS011;11000;50.360;7.582;2022-11-21T03:34:21;7.53;;;2.13;;
21677;SDS011;11000;50.360;7.582;2022-11-21T03:36:41;9.67;;;2.03;;
21677;SDS011;11000;50.360;7.582;2022-11-21T03:39:02;6.47;;;1.77;;
21677;SDS011;11000;50.360;7.582;2022-11-21T03:41:23;6.63;;;1.97;;
21677;SDS011;11000;50.360;7.582;2022-11-21T03:43:51;4.77;;;1.97;;
21677;SDS011;11000;50.360;7.582;2022-11-21T03:46:12;11.67;;;1.77;;
21677;SDS011;11000;50.360;7.582;2022-11-21T03:48:32;5.17;;;1.83;;
21677;SDS011;11000;50.360;7.582;2022-11-21T03:50:52;5.63;;;2.07;;
21677;SDS011;11000;50.360;7.582;2022-11-21T03:53:13;6.90;;;1.80;;
21677;SDS011;11000;50.360;7.582;2022-11-21T03:55:34;8.70;;;2.13;;
21677;SDS011;11000;50.360;7.582;2022-11-21T03:57:54;5.27;;;1.93;;
21677;SDS011;11000;50.360;7.582;2022-11-21T04:00:15;6.97;;;2.10;;
21677;SDS011;11000;50.360;7.582;2022-11-21T04:02:36;7.00;;;1.97;;
21677;SDS011;11000;50.360;7.582;2022-11-21T04:04:56;8.77;;;2.10;;
21677;SDS011;11000;50.360;7.582;2022-11-21T04:07:16;6.93;;;2.00;;
21677;SDS011;11000;50.360;7.582;2022-11-21T04:09:37;12.37;;;2.47;;
21677;SDS011;11000;50.360;7.582;2022-11-21T04:11:58;9.63;;;2.03;;
21677;SDS011;11000;50.360;7.582;2022-11-21T04:14:18;9.80;;;2.37;;
21677;SDS011;11000;50.360;7.582;2022-11-21T04:16:39;5.53;;;1.90;;
21677;SDS011;11000;50.360;7.582;2022-11-21T04:18:59;5.13;;;1.80;;
21677;SDS011;11000;50.360;7.582;2022-11-21T04:21:20;5.60;;;1.87;;
21677;SDS011;11000;50.360;7.582;2022-11-21T04:23:40;7.17;;;1.83;;
21677;SDS011;11000;50.360;7.582;2022-11-21T04:26:01;6.13;;;1.50;;
21677;SDS011;11000;50.360;7.582;2022-11-21T04:28:21;6.60;;;1.83;;
21677;SDS011;11000;50.360;7.582;2022-11-21T04:30:42;6.43;;;1.67;;
21677;SDS011;11000;50.360;7.582;2022-11-21T04:33:02;6.93;;;1.83;;
21677;SDS011;11000;50.360;7.582;2022-11-21T04:35:23;7.23;;;1.93;;
21677;SDS011;11000;50.360;7.582;2022-11-21T04:37:44;12.47;;;2.17;;
21677;SDS011;11000;50.360;7.582;2022-11-21T04:40:05;8.07;;;1.70;;
21677;SDS011;11000;50.360;7.582;2022-11-21T04:42:26;6.37;;;1.60;;
21677;SDS011;11000;50.360;7.582;2022-11-21T04:44:46;9.47;;;2.07;;
21677;SDS011;11000;50.360;7.582;2022-11-21T04:47:07;6.07;;;1.50;;
21677;SDS011;11000;50.360;7.582;2022-11-21T04:49:27;6.80;;;1.80;;
21677;SDS011;11000;50.360;7.582;2022-11-21T04:51:48;5.50;;;1.53;;
21677;SDS011;11000;50.360;7.582;2022-11-21T04:54:09;5.23;;;1.60;;
21677;SDS011;11000;50.360;7.582;2022-11-21T04:56:30;9.93;;;1.67;;
21677;SDS011;11000;50.360;7.582;2022-11-21T04:58:51;3.50;;;1.57;;
21677;SDS011;11000;50.360;7.582;2022-11-21T05:01:12;5.53;;;1.40;;
21677;SDS011;11000;50.360;7.582;2022-11-21T05:03:32;3.97;;;1.40;;
21677;SDS011;11000;50.360;7.582;2022-11-21T05:05:54;4.07;;;1.77;;
21677;SDS011;11000;50.360;7.582;2022-11-21T05:08:14;6.03;;;2.23;;
21677;SDS011;11000;50.360;7.582;2022-11-21T05:10:35;6.33;;;1.67;;
21677;SDS011;11000;50.360;7.582;2022-11-21T05:13:15;6.20;;;1.77;;
21677;SDS011;11000;50.360;7.582;2022-11-21T05:15:41;4.37;;;1.93;;
21677;SDS011;11000;50.360;7.582;2022-11-21T05:18:02;5.90;;;1.87;;
21677;SDS011;11000;50.360;7.582;2022-11-21T05:20:23;6.33;;;1.90;;
21677;SDS011;11000;50.360;7.582;2022-11-21T05:22:43;5.80;;;1.53;;
21677;SDS011;11000;50.360;7.582;2022-11-21T05:25:08;4.70;;;1.70;;
21677;SDS011;11000;50.360;7.582;2022-11-21T05:27:29;5.20;;;1.70;;
21677;SDS011;11000;50.360;7.582;2022-11-21T05:29:50;4.50;;;1.63;;
21677;SDS011;11000;50.360;7.582;2022-11-21T05:32:10;5.17;;;1.73;;
21677;SDS011;11000;50.360;7.582;2022-11-21T05:34:31;10.77;;;1.73;;
21677;SDS011;11000;50.360;7.582;2022-11-21T05:36:51;2.63;;;1.33;;
21677;SDS011;11000;50.360;7.582;2022-11-21T05:39:17;3.13;;;1.43;;
21677;SDS011;11000;50.360;7.582;2022-11-21T05:41:37;3.70;;;1.63;;
21677;SDS011;11000;50.360;7.582;2022-11-21T05:43:58;5.00;;;2.17;;
21677;SDS011;11000;50.360;7.582;2022-11-21T05:46:19;5.03;;;1.37;;
21677;SDS011;11000;50.360;7.582;2022-11-21T05:48:41;4.33;;;1.70;;
21677;SDS011;11000;50.360;7.582;2022-11-21T05:51:02;5.80;;;1.50;;
21677;SDS011;11000;50.360;7.582;2022-11-21T05:53:23;4.80;;;1.93;;
21677;SDS011;11000;50.360;7.582;2022-11-21T05:55:44;5.10;;;1.70;;
21677;SDS011;11000;50.360;7.582;2022-11-21T05:58:04;9.53;;;2.33;;
21677;SDS011;11000;50.360;7.582;2022-11-21T06:00:25;6.47;;;2.20;;
21677;SDS011;11000;50.360;7.582;2022-11-21T06:02:46;5.30;;;1.90;;
21677;SDS011;11000;50.360;7.582;2022-11-21T06:05:26;4.50;;;1.77;;
21677;SDS011;11000;50.360;7.582;2022-11-21T06:07:46;5.27;;;1.83;;
21677;SDS011;11000;50.360;7.582;2022-11-21T06:10:07;3.73;;;1.70;;
21677;SDS011;11000;50.360;7.582;2022-11-21T06:12:27;5.53;;;1.80;;
21677;SDS011;11000;50.360;7.582;2022-11-21T06:14:48;5.13;;;1.93;;
21677;SDS011;11000;50.360;7.582;2022-11-21T06:17:08;3.40;;;2.23;;
21677;SDS011;11000;50.360;7.582;2022-11-21T06:19:30;2.50;;;1.90;;
21677;SDS011;11000;50.360;7.582;2022-11-21T06:21:51;5.10;;;2.10;;
21677;SDS011;11000;50.360;7.582;2022-11-21T06:24:11;5.37;;;2.00;;
21677;SDS011;11000;50.360;7.582;2022-11-21T06:26:32;7.50;;;2.23;;
21677;SDS011;11000;50.360;7.582;2022-11-21T06:28:53;7.77;;;1.90;;
21677;SDS011;11000;50.360;7.582;2022-11-21T06:31:15;4.63;;;1.47;;
21677;SDS011;11000;50.360;7.582;2022-11-21T06:33:38;3.63;;;1.87;;
21677;SDS011;11000;50.360;7.582;2022-11-21T06:36:02;4.63;;;1.40;;
21677;SDS011;11000;50.360;7.582;2022-11-21T06:38:24;2.30;;;1.60;;
21677;SDS011;11000;50.360;7.582;2022-11-21T06:40:46;8.13;;;2.23;;
21677;SDS011;11000;50.360;7.582;2022-11-21T06:43:06;8.73;;;2.10;;
21677;SDS011;11000;50.360;7.582;2022-11-21T06:45:27;2.57;;;1.80;;
21677;SDS011;11000;50.360;7.582;2022-11-21T06:47:47;3.90;;;1.70;;
21677;SDS011;11000;50.360;7.582;2022-11-21T06:50:08;7.47;;;1.63;;
21677;SDS011;11000;50.360;7.582;2022-11-21T06:52:31;5.53;;;1.67;;
21677;SDS011;11000;50.360;7.582;2022-11-21T06:54:52;6.20;;;2.33;;
21677;SDS011;11000;50.360;7.582;2022-11-21T06:57:13;4.33;;;1.80;;
21677;SDS011;11000;50.360;7.582;2022-11-21T06:59:33;7.27;;;2.20;;
21677;SDS011;11000;50.360;7.582;2022-11-21T07:01:54;5.50;;;2.40;;
21677;SDS011;11000;50.360;7.582;2022-11-21T07:04:14;6.20;;;2.20;;
21677;SDS011;11000;50.360;7.582;2022-11-21T07:06:35;5.80;;;2.43;;
21677;SDS011;11000;50.360;7.582;2022-11-21T07:08:55;3.40;;;1.80;;
21677;SDS011;11000;50.360;7.582;2022-11-21T07:11:16;4.70;;;2.13;;
21677;SDS011;11000;50.360;7.582;2022-11-21T07:13:37;7.27;;;1.90;;
21677;SDS011;11000;50.360;7.582;2022-11-21T07:16:01;4.83;;;1.97;;
21677;SDS011;11000;50.360;7.582;2022-11-21T07:18:24;5.87;;;1.73;;
21677;SDS011;11000;50.360;7.582;2022-11-21T07:20:46;6.17;;;2.13;;
21677;SDS011;11000;50.360;7.582;2022-11-21T07:23:07;4.17;;;1.47;;
21677;SDS011;11000;50.360;7.582;2022-11-21T07:25:28;4.30;;;1.70;;
21677;SDS011;11000;50.360;7.582;2022-11-21T07:27:48;5.87;;;1.83;;
21677;SDS011;11000;50.360;7.582;2022-11-21T07:30:09;2.90;;;1.43;;
21677;SDS011;11000;50.360;7.582;2022-11-21T07:32:30;4.73;;;1.80;;
21677;SDS011;11000;50.360;7.582;2022-11-21T07:34:50;6.60;;;2.10;;
21677;SDS011;11000;50.360;7.582;2022-11-21T07:37:11;3.60;;;1.93;;
21677;SDS011;11000;50.360;7.582;2022-11-21T07:39:31;6.40;;;1.97;;
21677;SDS011;11000;50.360;7.582;2022-11-21T07:41:52;5.73;;;1.90;;
21677;SDS011;11000;50.360;7.582;2022-11-21T07:44:13;7.03;;;2.17;;
21677;SDS011;11000;50.360;7.582;2022-11-21T07:46:33;4.77;;;2.03;;
21677;SDS011;11000;50.360;7.582;2022-11-21T07:48:54;5.00;;;1.57;;
21677;SDS011;11000;50.360;7.582;2022-11-21T07:51:14;4.63;;;2.27;;
21677;SDS011;11000;50.360;7.582;2022-11-21T07:53:35;5.87;;;1.77;;
21677;SDS011;11000;50.360;7.582;2022-11-21T07:55:57;5.80;;;2.20;;
21677;SDS011;11000;50.360;7.582;2022-11-21T07:58:18;5.50;;;1.73;;
21677;SDS011;11000;50.360;7.582;2022-11-21T08:00:39;8.77;;;1.80;;
21677;SDS011;11000;50.360;7.582;2022-11-21T08:03:03;3.77;;;1.93;;
21677;SDS011;11000;50.360;7.582;2022-11-21T08:05:25;4.83;;;1.70;;
21677;SDS011;11000;50.360;7.582;2022-11-21T08:07:46;4.97;;;1.93;;
21677;SDS011;11000;50.360;7.582;2022-11-21T08:10:07;2.50;;;1.47;;
21677;SDS011;11000;50.360;7.582;2022-11-21T08:12:27;4.00;;;1.63;;
21677;SDS011;11000;50.360;7.582;2022-11-21T08:14:48;4.13;;;1.53;;
21677;SDS011;11000;50.360;7.582;2022-11-21T08:17:09;2.47;;;1.40;;
21677;SDS011;11000;50.360;7.582;2022-11-21T08:19:29;4.43;;;1.60;;
21677;SDS011;11000;50.360;7.582;2022-11-21T08:21:50;5.23;;;2.03;;
21677;SDS011;11000;50.360;7.582;2022-11-21T08:24:10;5.60;;;1.87;;
21677;SDS011;11000;50.360;7.582;2022-11-21T08:26:33;2.40;;;1.30;;
21677;SDS011;11000;50.360;7.582;2022-11-21T08:28:54;3.63;;;1.43;;
21677;SDS011;11000;50.360;7.582;2022-11-21T08:31:14;4.07;;;1.30;;
21677;SDS011;11000;50.360;7.582;2022-11-21T08:33:35;3.40;;;1.43;;
21677;SDS011;11000;50.360;7.582;2022-11-21T08:35:56;3.23;;;1.50;;
21677;SDS011;11000;50.360;7.582;2022-11-21T08:38:16;3.40;;;1.57;;
21677;SDS011;11000;50.360;7.582;2022-11-21T08:40:38;4.20;;;1.70;;
21677;SDS011;11000;50.360;7.582;2022-11-21T08:43:00;3.40;;;1.60;;
21677;SDS011;11000;50.360;7.582;2022-11-21T08:45:22;5.27;;;1.70;;
21677;SDS011;11000;50.360;7.582;2022-11-21T08:47:43;4.53;;;1.57;;
21677;SDS011;11000;50.360;7.582;2022-11-21T08:50:03;6.43;;;2.87;;
21677;SDS011;11000;50.360;7.582;2022-11-21T08:52:24;4.30;;;1.70;;
21677;SDS011;11000;50.360;7.582;2022-11-21T08:54:44;2.43;;;1.50;;
21677;SDS011;11000;50.360;7.582;2022-11-21T08:57:05;5.07;;;1.83;;
21677;SDS011;11000;50.360;7.582;2022-11-21T08:59:26;2.97;;;2.00;;
21677;SDS011;11000;50.360;7.582;2022-11-21T09:01:46;6.70;;;1.90;;
21677;SDS011;11000;50.360;7.582;2022-11-21T09:04:07;3.47;;;1.97;;
21677;SDS011;11000;50.360;7.582;2022-11-21T09:06:28;4.57;;;1.83;;
21677;SDS011;11000;50.360;7.582;2022-11-21T09:08:49;6.10;;;2.00;;
21677;SDS011;11000;50.360;7.582;2022-11-21T09:11:09;6.40;;;1.80;;
21677;SDS011;11000;50.360;7.582;2022-11-21T09:13:30;6.10;;;1.53;;
21677;SDS011;11000;50.360;7.582;2022-11-21T09:15:52;2.43;;;1.60;;
21677;SDS011;11000;50.360;7.582;2022-11-21T09:18:31;3.97;;;1.57;;
21677;SDS011;11000;50.360;7.582;2022-11-21T09:20:51;4.07;;;1.90;;
21677;SDS011;11000;50.360;7.582;2022-11-21T09:23:13;2.60;;;1.20;;
21677;SDS011;11000;50.360;7.582;2022-11-21T09:25:34;3.80;;;1.27;;
21677;SDS011;11000;50.360;7.582;2022-11-21T09:27:57;5.43;;;1.53;;
21677;SDS011;11000;50.360;7.582;2022-11-21T09:30:19;3.93;;;1.30;;
21677;SDS011;11000;50.360;7.582;2022-11-21T09:32:40;1.50;;;1.20;;
21677;SDS011;11000;50.360;7.582;2022-11-21T09:35:01;3.03;;;1.50;;
21677;SDS011;11000;50.360;7.582;2022-11-21T09:37:21;5.23;;;1.33;;
21677;SDS011;11000;50.360;7.582;2022-11-21T09:39:42;3.70;;;1.43;;
21677;SDS011;11000;50.360;7.582;2022-11-21T09:45:13;2.13;;;1.20;;
21677;SDS011;11000;50.360;7.582;2022-11-21T09:47:42;4.67;;;1.17;;
21677;SDS011;11000;50.360;7.582;2022-11-21T09:55:22;2.73;;;1.10;;
21677;SDS011;11000;50.360;7.582;2022-11-21T09:57:48;2.23;;;1.00;;
21677;SDS011;11000;50.360;7.582;2022-11-21T10:00:18;1.87;;;0.97;;
21677;SDS011;11000;50.360;7.582;2022-11-21T10:02:43;4.47;;;1.57;;
21677;SDS011;11000;50.360;7.582;2022-11-21T10:05:05;1.87;;;1.07;;
21677;SDS011;11000;50.360;7.582;2022-11-21T10:07:32;9.40;;;1.40;;
21677;SDS011;11000;50.360;7.582;2022-11-21T10:12:54;3.27;;;1.30;;
21677;SDS011;11000;50.360;7.582;2022-11-21T10:15:45;3.30;;;1.10;;
21677;SDS011;11000;50.360;7.582;2022-11-21T10:26:41;2.23;;;0.97;;
21677;SDS011;11000;50.360;7.582;2022-11-21T10:29:25;2.53;;;1.10;;
21677;SDS011;11000;50.360;7.582;2022-11-21T10:31:50;1.83;;;0.90;;
21677;SDS011;11000;50.360;7.582;2022-11-21T10:34:18;2.80;;;0.93;;
21677;SDS011;11000;50.360;7.582;2022-11-21T10:36:43;2.87;;;1.07;;
21677;SDS011;11000;50.360;7.582;2022-11-21T10:44:48;3.90;;;1.00;;
21677;SDS011;11000;50.360;7.582;2022-11-21T10:47:32;2.13;;;1.20;;
21677;SDS011;11000;50.360;7.582;2022-11-21T10:50:02;4.23;;;1.43;;
21677;SDS011;11000;50.360;7.582;2022-11-21T10:52:29;3.37;;;0.97;;
21677;SDS011;11000;50.360;7.582;2022-11-21T10:55:05;2.73;;;1.00;;
21677;SDS011;11000;50.360;7.582;2022-11-21T10:57:28;2.53;;;1.30;;
21677;SDS011;11000;50.360;7.582;2022-11-21T10:59:55;1.07;;;0.90;;
21677;SDS011;11000;50.360;7.582;2022-11-21T11:04:39;7.13;;;1.60;;
21677;SDS011;11000;50.360;7.582;2022-11-21T11:07:12;2.47;;;0.90;;
21677;SDS011;11000;50.360;7.582;2022-11-21T11:09:44;2.10;;;1.10;;
21677;SDS011;11000;50.360;7.582;2022-11-21T11:12:19;3.80;;;1.17;;
21677;SDS011;11000;50.360;7.582;2022-11-21T11:15:11;3.10;;;1.10;;
21677;SDS011;11000;50.360;7.582;2022-11-21T11:17:40;5.33;;;0.97;;
21677;SDS011;11000;50.360;7.582;2022-11-21T11:20:05;3.47;;;1.37;;
21677;SDS011;11000;50.360;7.582;2022-11-21T11:22:46;3.43;;;1.43;;
21677;SDS011;11000;50.360;7.582;2022-11-21T11:25:06;2.20;;;1.00;;
21677;SDS011;11000;50.360;7.582;2022-11-21T11:27:28;3.27;;;0.97;;
21677;SDS011;11000;50.360;7.582;2022-11-21T11:29:49;2.10;;;1.00;;
21677;SDS011;11000;50.360;7.582;2022-11-21T11:32:14;4.40;;;1.20;;
21677;SDS011;11000;50.360;7.582;2022-11-21T11:34:38;3.60;;;1.30;;
21677;SDS011;11000;50.360;7.582;2022-11-21T11:45:15;5.47;;;1.30;;
21677;SDS011;11000;50.360;7.582;2022-11-21T11:48:07;2.40;;;1.07;;
21677;SDS011;11000;50.360;7.582;2022-11-21T11:50:34;6.80;;;1.10;;
21677;SDS011;11000;50.360;7.582;2022-11-21T11:58:05;6.03;;;1.17;;
21677;SDS011;11000;50.360;7.582;2022-11-21T12:00:36;3.97;;;1.27;;
21677;SDS011;11000;50.360;7.582;2022-11-21T12:05:30;3.70;;;0.90;;
21677;SDS011;11000;50.360;7.582;2022-11-21T12:08:07;5.67;;;1.30;;
21677;SDS011;11000;50.360;7.582;2022-11-21T12:17:24;6.30;;;1.77;;
21677;SDS011;11000;50.360;7.582;2022-11-21T12:19:51;7.23;;;1.97;;
21677;SDS011;11000;50.360;7.582;2022-11-21T12:22:13;3.70;;;1.00;;
21677;SDS011;11000;50.360;7.582;2022-11-21T12:24:34;1.77;;;1.03;;
21677;SDS011;11000;50.360;7.582;2022-11-21T12:40:39;11.23;;;1.60;;
21677;SDS011;11000;50.360;7.582;2022-11-21T12:43:47;5.37;;;1.27;;
21677;SDS011;11000;50.360;7.582;2022-11-21T12:46:36;5.53;;;1.50;;
21677;SDS011;11000;50.360;7.582;2022-11-21T12:57:28;6.40;;;1.60;;
21677;SDS011;11000;50.360;7.582;2022-11-21T13:05:01;6.77;;;1.53;;
21677;SDS011;11000;50.360;7.582;2022-11-21T13:07:25;5.00;;;1.40;;
21677;SDS011;11000;50.360;7.582;2022-11-21T13:09:49;4.70;;;1.40;;
21677;SDS011;11000;50.360;7.582;2022-11-21T13:20:22;3.20;;;1.63;;
21677;SDS011;11000;50.360;7.582;2022-11-21T13:22:47;5.23;;;1.87;;
21677;SDS011;11000;50.360;7.582;2022-11-21T13:27:51;6.03;;;2.37;;
21677;SDS011;11000;50.360;7.582;2022-11-21T13:32:53;8.30;;;1.97;;
21677;SDS011;11000;50.360;7.582;2022-11-21T13:43:12;5.00;;;1.63;;
21677;SDS011;11000;50.360;7.582;2022-11-21T13:45:42;3.57;;;1.20;;
21677;SDS011;11000;50.360;7.582;2022-11-21T14:04:07;5.20;;;1.50;;
21677;SDS011;11000;50.360;7.582;2022-11-21T14:06:49;4.50;;;1.87;;
21677;SDS011;11000;50.360;7.582;2022-11-21T14:11:39;6.03;;;1.70;;
21677;SDS011;11000;50.360;7.582;2022-11-21T14:14:22;6.40;;;2.10;;
21677;SDS011;11000;50.360;7.582;2022-11-21T14:16:49;5.43;;;2.00;;
21677;SDS011;11000;50.360;7.582;2022-11-21T14:19:17;3.60;;;1.57;;
21677;SDS011;11000;50.360;7.582;2022-11-21T14:21:39;5.60;;;1.70;;
21677;SDS011;11000;50.360;7.582;2022-11-21T14:24:03;4.73;;;1.77;;
21677;SDS011;11000;50.360;7.582;2022-11-21T14:26:39;3.87;;;1.60;;
21677;SDS011;11000;50.360;7.582;2022-11-21T14:31:48;5.37;;;1.60;;
21677;SDS011;11000;50.360;7.582;2022-11-21T14:34:09;5.37;;;2.00;;
21677;SDS011;11000;50.360;7.582;2022-11-21T14:36:29;6.00;;;1.60;;
21677;SDS011;11000;50.360;7.582;2022-11-21T14:38:52;3.30;;;1.90;;
21677;SDS011;11000;50.360;7.582;2022-11-21T14:43:43;3.90;;;1.43;;
21677;SDS011;11000;50.360;7.582;2022-11-21T14:46:11;4.53;;;2.00;;
21677;SDS011;11000;50.360;7.582;2022-11-21T14:48:55;2.90;;;1.70;;
21677;SDS011;11000;50.360;7.582;2022-11-21T14:51:17;6.33;;;1.77;;
21677;SDS011;11000;50.360;7.582;2022-11-21T14:53:42;6.97;;;1.40;;
21677;SDS011;11000;50.360;7.582;2022-11-21T14:56:03;5.20;;;1.30;;
21677;SDS011;11000;50.360;7.582;2022-11-21T14:58:24;5.97;;;1.30;;
21677;SDS011;11000;50.360;7.582;2022-11-21T15:01:07;5.33;;;1.30;;
21677;SDS011;11000;50.360;7.582;2022-11-21T15:03:26;4.50;;;1.67;;
21677;SDS011;11000;50.360;7.582;2022-11-21T15:05:47;5.37;;;1.53;;
21677;SDS011;11000;50.360;7.582;2022-11-21T15:08:09;4.93;;;1.30;;
21677;SDS011;11000;50.360;7.582;2022-11-21T15:10:31;3.60;;;1.53;;
21677;SDS011;11000;50.360;7.582;2022-11-21T15:18:26;5.40;;;1.70;;
21677;SDS011;11000;50.360;7.582;2022-11-21T15:20:52;5.00;;;1.73;;
21677;SDS011;11000;50.360;7.582;2022-11-21T15:25:49;5.20;;;1.70;;
21677;SDS011;11000;50.360;7.582;2022-11-21T15:28:16;4.13;;;1.57;;
21677;SDS011;11000;50.360;7.582;2022-11-21T15:30:38;3.20;;;1.53;;
21677;SDS011;11000;50.360;7.582;2022-11-21T15:33:08;3.77;;;1.47;;
21677;SDS011;11000;50.360;7.582;2022-11-21T15:38:12;6.07;;;2.27;;
21677;SDS011;11000;50.360;7.582;2022-11-21T15:40:35;9.17;;;1.90;;
21677;SDS011;11000;50.360;7.582;2022-11-21T15:42:56;4.87;;;1.37;;
21677;SDS011;11000;50.360;7.582;2022-11-21T15:45:26;4.60;;;1.70;;
21677;SDS011;11000;50.360;7.582;2022-11-21T15:47:47;8.50;;;2.30;;
21677;SDS011;11000;50.360;7.582;2022-11-21T15:50:07;6.63;;;1.80;;
21677;SDS011;11000;50.360;7.582;2022-11-21T15:52:28;7.30;;;2.00;;
21677;SDS011;11000;50.360;7.582;2022-11-21T15:54:49;6.97;;;1.70;;
21677;SDS011;11000;50.360;7.582;2022-11-21T15:57:09;4.90;;;1.93;;
21677;SDS011;11000;50.360;7.582;2022-11-21T15:59:30;10.20;;;1.90;;
21677;SDS011;11000;50.360;7.582;2022-11-21T16:01:51;5.43;;;2.00;;
21677;SDS011;11000;50.360;7.582;2022-11-21T16:04:12;6.37;;;2.00;;
21677;SDS011;11000;50.360;7.582;2022-11-21T16:06:32;3.67;;;1.67;;
21677;SDS011;11000;50.360;7.582;2022-11-21T16:08:53;4.63;;;1.80;;
21677;SDS011;11000;50.360;7.582;2022-11-21T16:11:47;7.03;;;1.93;;
21677;SDS011;11000;50.360;7.582;2022-11-21T16:14:02;3.90;;;1.63;;
21677;SDS011;11000;50.360;7.582;2022-11-21T16:16:30;3.63;;;1.50;;
21677;SDS011;11000;50.360;7.582;2022-11-21T16:18:56;6.30;;;2.23;;
21677;SDS011;11000;50.360;7.582;2022-11-21T16:21:17;6.30;;;2.47;;
21677;SDS011;11000;50.360;7.582;2022-11-21T16:23:38;4.70;;;1.67;;
21677;SDS011;11000;50.360;7.582;2022-11-21T16:25:59;4.17;;;1.50;;
21677;SDS011;11000;50.360;7.582;2022-11-21T16:28:20;5.43;;;2.17;;
21677;SDS011;11000;50.360;7.582;2022-11-21T16:30:40;8.23;;;2.90;;
21677;SDS011;11000;50.360;7.582;2022-11-21T16:33:02;5.77;;;1.90;;
21677;SDS011;11000;50.360;7.582;2022-11-21T16:35:22;5.63;;;2.77;;
21677;SDS011;11000;50.360;7.582;2022-11-21T16:37:43;6.93;;;2.10;;
21677;SDS011;11000;50.360;7.582;2022-11-21T16:40:04;7.97;;;2.43;;